METAR Data
IDs: Format: Raw Decoded Include TAF

Data at: 2341 UTC 30 Jun 2022

PKMR 302250Z 08006KT 15SM FEW015 SCT050 BKN120 OVC300 29/25 A2986 RMK SLP112 T02920252